sensor_id;sensor_type;location;lat;lon;timestamp;P1;durP1;ratioP1;P2;durP2;ratioP2
4452;SDS011;2239;48.152;11.584;2023-03-24T00:00:25;3.57;;;1.07;;
4452;SDS011;2239;48.152;11.584;2023-03-24T00:02:51;2.20;;;1.43;;
4452;SDS011;2239;48.152;11.584;2023-03-24T00:05:17;2.40;;;1.33;;
4452;SDS011;2239;48.152;11.584;2023-03-24T00:07:45;2.77;;;0.97;;
4452;SDS011;2239;48.152;11.584;2023-03-24T00:10:12;3.77;;;1.43;;
4452;SDS011;2239;48.152;11.584;2023-03-24T00:12:48;1.83;;;1.20;;
4452;SDS011;2239;48.152;11.584;2023-03-24T00:15:18;2.20;;;1.60;;
4452;SDS011;2239;48.152;11.584;2023-03-24T00:17:45;4.90;;;1.10;;
4452;SDS011;2239;48.152;11.584;2023-03-24T00:20:14;4.87;;;1.40;;
4452;SDS011;2239;48.152;11.584;2023-03-24T00:22:44;6.93;;;1.43;;
4452;SDS011;2239;48.152;11.584;2023-03-24T00:25:16;2.53;;;1.40;;
4452;SDS011;2239;48.152;11.584;2023-03-24T00:27:42;2.97;;;1.20;;
4452;SDS011;2239;48.152;11.584;2023-03-24T00:30:09;2.30;;;1.13;;
4452;SDS011;2239;48.152;11.584;2023-03-24T00:32:36;2.13;;;1.47;;
4452;SDS011;2239;48.152;11.584;2023-03-24T00:35:04;1.40;;;1.00;;
4452;SDS011;2239;48.152;11.584;2023-03-24T00:37:32;1.90;;;1.20;;
4452;SDS011;2239;48.152;11.584;2023-03-24T00:40:01;4.10;;;1.57;;
4452;SDS011;2239;48.152;11.584;2023-03-24T00:42:36;1.60;;;0.97;;
4452;SDS011;2239;48.152;11.584;2023-03-24T00:45:03;2.50;;;1.43;;
4452;SDS011;2239;48.152;11.584;2023-03-24T00:47:31;2.23;;;1.10;;
4452;SDS011;2239;48.152;11.584;2023-03-24T00:50:00;1.40;;;0.77;;
4452;SDS011;2239;48.152;11.584;2023-03-24T00:52:27;2.20;;;1.00;;
4452;SDS011;2239;48.152;11.584;2023-03-24T00:54:57;5.13;;;1.10;;
4452;SDS011;2239;48.152;11.584;2023-03-24T00:57:26;1.40;;;1.30;;
4452;SDS011;2239;48.152;11.584;2023-03-24T00:59:54;2.87;;;1.13;;
4452;SDS011;2239;48.152;11.584;2023-03-24T01:02:24;2.73;;;1.30;;
4452;SDS011;2239;48.152;11.584;2023-03-24T01:04:51;4.47;;;1.43;;
4452;SDS011;2239;48.152;11.584;2023-03-24T01:07:18;4.73;;;1.53;;
4452;SDS011;2239;48.152;11.584;2023-03-24T01:09:47;2.33;;;1.10;;
4452;SDS011;2239;48.152;11.584;2023-03-24T01:12:21;2.27;;;1.27;;
4452;SDS011;2239;48.152;11.584;2023-03-24T01:14:51;1.60;;;1.10;;
4452;SDS011;2239;48.152;11.584;2023-03-24T01:17:17;3.73;;;1.50;;
4452;SDS011;2239;48.152;11.584;2023-03-24T01:19:44;2.77;;;1.20;;
4452;SDS011;2239;48.152;11.584;2023-03-24T01:22:09;1.90;;;1.30;;
4452;SDS011;2239;48.152;11.584;2023-03-24T01:24:36;3.37;;;1.17;;
4452;SDS011;2239;48.152;11.584;2023-03-24T01:27:02;1.93;;;1.10;;
4452;SDS011;2239;48.152;11.584;2023-03-24T01:29:27;3.13;;;1.40;;
4452;SDS011;2239;48.152;11.584;2023-03-24T01:31:53;1.63;;;1.00;;
4452;SDS011;2239;48.152;11.584;2023-03-24T01:34:18;4.10;;;1.30;;
4452;SDS011;2239;48.152;11.584;2023-03-24T01:36:44;1.67;;;1.00;;
4452;SDS011;2239;48.152;11.584;2023-03-24T01:39:10;3.93;;;1.53;;
4452;SDS011;2239;48.152;11.584;2023-03-24T01:41:36;2.60;;;1.30;;
4452;SDS011;2239;48.152;11.584;2023-03-24T01:44:22;2.90;;;2.10;;
4452;SDS011;2239;48.152;11.584;2023-03-24T01:46:48;6.80;;;1.70;;
4452;SDS011;2239;48.152;11.584;2023-03-24T01:49:14;2.33;;;1.33;;
4452;SDS011;2239;48.152;11.584;2023-03-24T01:51:41;2.23;;;1.23;;
4452;SDS011;2239;48.152;11.584;2023-03-24T01:59:47;2.30;;;1.53;;
4452;SDS011;2239;48.152;11.584;2023-03-24T02:02:15;2.47;;;1.37;;
4452;SDS011;2239;48.152;11.584;2023-03-24T02:04:46;1.87;;;1.10;;
4452;SDS011;2239;48.152;11.584;2023-03-24T02:07:32;3.90;;;1.87;;
4452;SDS011;2239;48.152;11.584;2023-03-24T02:10:26;2.53;;;1.70;;
4452;SDS011;2239;48.152;11.584;2023-03-24T02:12:55;2.63;;;1.13;;
4452;SDS011;2239;48.152;11.584;2023-03-24T02:15:21;1.63;;;0.87;;
4452;SDS011;2239;48.152;11.584;2023-03-24T02:17:50;2.77;;;1.37;;
4452;SDS011;2239;48.152;11.584;2023-03-24T02:20:29;2.23;;;1.10;;
4452;SDS011;2239;48.152;11.584;2023-03-24T02:28:34;2.77;;;1.33;;
4452;SDS011;2239;48.152;11.584;2023-03-24T02:31:33;3.47;;;1.13;;
4452;SDS011;2239;48.152;11.584;2023-03-24T02:42:41;2.60;;;1.13;;
4452;SDS011;2239;48.152;11.584;2023-03-24T02:53:29;1.83;;;1.63;;
4452;SDS011;2239;48.152;11.584;2023-03-24T02:58:39;4.57;;;1.23;;
4452;SDS011;2239;48.152;11.584;2023-03-24T03:01:24;1.47;;;1.20;;
4452;SDS011;2239;48.152;11.584;2023-03-24T03:04:00;1.30;;;1.13;;
4452;SDS011;2239;48.152;11.584;2023-03-24T03:06:33;1.93;;;1.10;;
4452;SDS011;2239;48.152;11.584;2023-03-24T03:09:05;2.70;;;1.17;;
4452;SDS011;2239;48.152;11.584;2023-03-24T03:11:35;2.23;;;1.20;;
4452;SDS011;2239;48.152;11.584;2023-03-24T03:14:09;1.77;;;0.90;;
4452;SDS011;2239;48.152;11.584;2023-03-24T03:16:41;2.40;;;1.10;;
4452;SDS011;2239;48.152;11.584;2023-03-24T03:19:38;3.70;;;1.07;;
4452;SDS011;2239;48.152;11.584;2023-03-24T03:22:06;1.87;;;1.10;;
4452;SDS011;2239;48.152;11.584;2023-03-24T03:24:37;2.20;;;1.00;;
4452;SDS011;2239;48.152;11.584;2023-03-24T03:27:07;5.10;;;1.43;;
4452;SDS011;2239;48.152;11.584;2023-03-24T03:29:42;2.00;;;1.13;;
4452;SDS011;2239;48.152;11.584;2023-03-24T03:32:13;2.23;;;1.40;;
4452;SDS011;2239;48.152;11.584;2023-03-24T03:34:53;3.97;;;1.63;;
4452;SDS011;2239;48.152;11.584;2023-03-24T03:39:58;1.37;;;0.93;;
4452;SDS011;2239;48.152;11.584;2023-03-24T03:42:33;1.43;;;1.10;;
4452;SDS011;2239;48.152;11.584;2023-03-24T03:44:59;29.47;;;1.73;;
4452;SDS011;2239;48.152;11.584;2023-03-24T03:47:25;3.10;;;1.03;;
4452;SDS011;2239;48.152;11.584;2023-03-24T03:49:51;1.57;;;1.07;;
4452;SDS011;2239;48.152;11.584;2023-03-24T03:52:17;2.23;;;1.23;;
4452;SDS011;2239;48.152;11.584;2023-03-24T03:54:43;2.53;;;1.33;;
4452;SDS011;2239;48.152;11.584;2023-03-24T03:57:09;2.33;;;1.37;;
4452;SDS011;2239;48.152;11.584;2023-03-24T03:59:37;1.53;;;1.23;;
4452;SDS011;2239;48.152;11.584;2023-03-24T04:13:16;2.27;;;1.03;;
4452;SDS011;2239;48.152;11.584;2023-03-24T04:15:56;3.37;;;1.77;;
4452;SDS011;2239;48.152;11.584;2023-03-24T04:18:43;1.10;;;0.80;;
4452;SDS011;2239;48.152;11.584;2023-03-24T04:26:51;1.97;;;1.00;;
4452;SDS011;2239;48.152;11.584;2023-03-24T04:29:57;2.03;;;0.90;;
4452;SDS011;2239;48.152;11.584;2023-03-24T04:32:44;2.20;;;1.30;;
4452;SDS011;2239;48.152;11.584;2023-03-24T04:35:23;2.80;;;1.40;;
4452;SDS011;2239;48.152;11.584;2023-03-24T04:37:58;1.97;;;1.17;;
4452;SDS011;2239;48.152;11.584;2023-03-24T04:40:27;2.60;;;1.07;;
4452;SDS011;2239;48.152;11.584;2023-03-24T04:42:58;3.20;;;1.23;;
4452;SDS011;2239;48.152;11.584;2023-03-24T04:45:28;3.00;;;1.57;;
4452;SDS011;2239;48.152;11.584;2023-03-24T04:47:58;1.73;;;1.10;;
4452;SDS011;2239;48.152;11.584;2023-03-24T04:50:36;3.90;;;1.50;;
4452;SDS011;2239;48.152;11.584;2023-03-24T04:53:07;2.20;;;1.73;;
4452;SDS011;2239;48.152;11.584;2023-03-24T04:58:41;2.17;;;0.93;;
4452;SDS011;2239;48.152;11.584;2023-03-24T05:01:06;1.00;;;0.90;;
4452;SDS011;2239;48.152;11.584;2023-03-24T05:03:32;2.30;;;1.30;;
4452;SDS011;2239;48.152;11.584;2023-03-24T05:06:01;2.90;;;1.17;;
4452;SDS011;2239;48.152;11.584;2023-03-24T05:08:29;4.83;;;1.90;;
4452;SDS011;2239;48.152;11.584;2023-03-24T05:10:55;2.30;;;1.10;;
4452;SDS011;2239;48.152;11.584;2023-03-24T05:13:21;1.67;;;0.93;;
4452;SDS011;2239;48.152;11.584;2023-03-24T05:15:46;2.00;;;1.30;;
4452;SDS011;2239;48.152;11.584;2023-03-24T05:18:12;2.23;;;1.20;;
4452;SDS011;2239;48.152;11.584;2023-03-24T05:20:37;2.33;;;1.13;;
4452;SDS011;2239;48.152;11.584;2023-03-24T05:23:03;3.23;;;1.50;;
4452;SDS011;2239;48.152;11.584;2023-03-24T05:25:28;1.63;;;1.00;;
4452;SDS011;2239;48.152;11.584;2023-03-24T05:27:54;2.40;;;1.43;;
4452;SDS011;2239;48.152;11.584;2023-03-24T05:30:20;2.10;;;1.13;;
4452;SDS011;2239;48.152;11.584;2023-03-24T05:32:46;1.60;;;1.20;;
4452;SDS011;2239;48.152;11.584;2023-03-24T05:35:11;2.50;;;1.20;;
4452;SDS011;2239;48.152;11.584;2023-03-24T05:37:37;2.40;;;1.50;;
4452;SDS011;2239;48.152;11.584;2023-03-24T05:40:02;3.90;;;1.77;;
4452;SDS011;2239;48.152;11.584;2023-03-24T05:42:28;2.20;;;1.20;;
4452;SDS011;2239;48.152;11.584;2023-03-24T05:44:54;2.73;;;1.50;;
4452;SDS011;2239;48.152;11.584;2023-03-24T05:47:20;1.60;;;0.90;;
4452;SDS011;2239;48.152;11.584;2023-03-24T05:49:46;1.77;;;1.07;;
4452;SDS011;2239;48.152;11.584;2023-03-24T05:52:12;3.30;;;1.10;;
4452;SDS011;2239;48.152;11.584;2023-03-24T05:54:40;1.27;;;0.87;;
4452;SDS011;2239;48.152;11.584;2023-03-24T05:57:07;1.90;;;0.80;;
4452;SDS011;2239;48.152;11.584;2023-03-24T05:59:36;1.47;;;1.30;;
4452;SDS011;2239;48.152;11.584;2023-03-24T06:02:02;2.67;;;1.20;;
4452;SDS011;2239;48.152;11.584;2023-03-24T06:04:28;3.63;;;1.30;;
4452;SDS011;2239;48.152;11.584;2023-03-24T06:06:54;2.30;;;1.33;;
4452;SDS011;2239;48.152;11.584;2023-03-24T06:09:26;1.87;;;1.20;;
4452;SDS011;2239;48.152;11.584;2023-03-24T06:11:54;3.30;;;1.30;;
4452;SDS011;2239;48.152;11.584;2023-03-24T06:14:20;4.57;;;1.63;;
4452;SDS011;2239;48.152;11.584;2023-03-24T06:16:46;2.10;;;1.27;;
4452;SDS011;2239;48.152;11.584;2023-03-24T06:19:14;2.43;;;1.57;;
4452;SDS011;2239;48.152;11.584;2023-03-24T06:21:40;2.37;;;1.20;;
4452;SDS011;2239;48.152;11.584;2023-03-24T06:24:08;6.50;;;1.77;;
4452;SDS011;2239;48.152;11.584;2023-03-24T06:26:38;2.57;;;1.10;;
4452;SDS011;2239;48.152;11.584;2023-03-24T06:29:06;3.03;;;1.50;;
4452;SDS011;2239;48.152;11.584;2023-03-24T06:31:31;4.57;;;1.90;;
4452;SDS011;2239;48.152;11.584;2023-03-24T06:33:58;2.50;;;1.37;;
4452;SDS011;2239;48.152;11.584;2023-03-24T06:36:23;4.63;;;1.77;;
4452;SDS011;2239;48.152;11.584;2023-03-24T06:38:49;2.73;;;1.37;;
4452;SDS011;2239;48.152;11.584;2023-03-24T06:41:15;1.80;;;1.40;;
4452;SDS011;2239;48.152;11.584;2023-03-24T06:43:41;2.60;;;1.50;;
4452;SDS011;2239;48.152;11.584;2023-03-24T06:46:07;4.00;;;1.93;;
4452;SDS011;2239;48.152;11.584;2023-03-24T06:48:33;3.50;;;1.90;;
4452;SDS011;2239;48.152;11.584;2023-03-24T06:50:59;6.47;;;1.63;;
4452;SDS011;2239;48.152;11.584;2023-03-24T06:53:25;3.03;;;1.60;;
4452;SDS011;2239;48.152;11.584;2023-03-24T06:55:51;3.23;;;1.50;;
4452;SDS011;2239;48.152;11.584;2023-03-24T06:58:16;5.20;;;1.73;;
4452;SDS011;2239;48.152;11.584;2023-03-24T07:00:42;3.27;;;1.67;;
4452;SDS011;2239;48.152;11.584;2023-03-24T07:03:09;3.93;;;1.90;;
4452;SDS011;2239;48.152;11.584;2023-03-24T07:05:38;3.50;;;1.87;;
4452;SDS011;2239;48.152;11.584;2023-03-24T07:08:05;4.20;;;1.80;;
4452;SDS011;2239;48.152;11.584;2023-03-24T07:10:31;2.60;;;1.70;;
4452;SDS011;2239;48.152;11.584;2023-03-24T07:12:56;3.80;;;1.70;;
4452;SDS011;2239;48.152;11.584;2023-03-24T07:15:23;4.00;;;1.97;;
4452;SDS011;2239;48.152;11.584;2023-03-24T07:17:49;4.77;;;1.97;;
4452;SDS011;2239;48.152;11.584;2023-03-24T07:20:15;2.73;;;1.40;;
4452;SDS011;2239;48.152;11.584;2023-03-24T07:22:41;2.50;;;1.90;;
4452;SDS011;2239;48.152;11.584;2023-03-24T07:25:07;5.80;;;2.60;;
4452;SDS011;2239;48.152;11.584;2023-03-24T07:27:33;3.00;;;1.33;;
4452;SDS011;2239;48.152;11.584;2023-03-24T07:29:59;2.30;;;1.43;;
4452;SDS011;2239;48.152;11.584;2023-03-24T07:32:25;3.70;;;1.83;;
4452;SDS011;2239;48.152;11.584;2023-03-24T07:34:54;3.27;;;2.23;;
4452;SDS011;2239;48.152;11.584;2023-03-24T07:37:19;4.70;;;1.90;;
4452;SDS011;2239;48.152;11.584;2023-03-24T07:39:45;4.40;;;1.93;;
4452;SDS011;2239;48.152;11.584;2023-03-24T07:42:11;2.83;;;1.70;;
4452;SDS011;2239;48.152;11.584;2023-03-24T07:44:37;5.53;;;2.10;;
4452;SDS011;2239;48.152;11.584;2023-03-24T07:47:02;1.37;;;1.20;;
4452;SDS011;2239;48.152;11.584;2023-03-24T07:49:28;3.67;;;1.73;;
4452;SDS011;2239;48.152;11.584;2023-03-24T07:51:53;2.33;;;1.70;;
4452;SDS011;2239;48.152;11.584;2023-03-24T07:54:19;3.97;;;1.70;;
4452;SDS011;2239;48.152;11.584;2023-03-24T07:56:45;2.93;;;1.60;;
4452;SDS011;2239;48.152;11.584;2023-03-24T07:59:11;5.50;;;2.40;;
4452;SDS011;2239;48.152;11.584;2023-03-24T08:01:36;6.40;;;2.03;;
4452;SDS011;2239;48.152;11.584;2023-03-24T08:04:03;3.03;;;2.07;;
4452;SDS011;2239;48.152;11.584;2023-03-24T08:06:30;5.20;;;2.13;;
4452;SDS011;2239;48.152;11.584;2023-03-24T08:08:55;2.83;;;1.37;;
4452;SDS011;2239;48.152;11.584;2023-03-24T08:11:21;3.87;;;1.73;;
4452;SDS011;2239;48.152;11.584;2023-03-24T08:13:47;1.57;;;1.17;;
4452;SDS011;2239;48.152;11.584;2023-03-24T08:16:12;5.50;;;1.90;;
4452;SDS011;2239;48.152;11.584;2023-03-24T08:18:38;1.50;;;1.10;;
4452;SDS011;2239;48.152;11.584;2023-03-24T08:21:03;2.70;;;1.40;;
4452;SDS011;2239;48.152;11.584;2023-03-24T08:23:29;2.90;;;1.47;;
4452;SDS011;2239;48.152;11.584;2023-03-24T08:25:55;2.70;;;1.40;;
4452;SDS011;2239;48.152;11.584;2023-03-24T08:28:22;2.80;;;1.43;;
4452;SDS011;2239;48.152;11.584;2023-03-24T08:30:47;2.37;;;1.33;;
4452;SDS011;2239;48.152;11.584;2023-03-24T08:33:14;3.87;;;1.90;;
4452;SDS011;2239;48.152;11.584;2023-03-24T08:35:41;1.70;;;1.00;;
4452;SDS011;2239;48.152;11.584;2023-03-24T08:38:09;2.07;;;1.40;;
4452;SDS011;2239;48.152;11.584;2023-03-24T08:40:40;4.97;;;1.47;;
4452;SDS011;2239;48.152;11.584;2023-03-24T08:43:07;2.17;;;1.43;;
4452;SDS011;2239;48.152;11.584;2023-03-24T08:45:36;3.13;;;1.33;;
4452;SDS011;2239;48.152;11.584;2023-03-24T08:48:03;3.00;;;1.40;;
4452;SDS011;2239;48.152;11.584;2023-03-24T08:50:34;2.27;;;1.70;;
4452;SDS011;2239;48.152;11.584;2023-03-24T08:53:02;2.40;;;1.50;;
4452;SDS011;2239;48.152;11.584;2023-03-24T08:55:28;1.60;;;1.00;;
4452;SDS011;2239;48.152;11.584;2023-03-24T08:57:54;2.67;;;1.73;;
4452;SDS011;2239;48.152;11.584;2023-03-24T09:00:20;3.87;;;1.30;;
4452;SDS011;2239;48.152;11.584;2023-03-24T09:02:50;3.13;;;1.57;;
4452;SDS011;2239;48.152;11.584;2023-03-24T09:05:18;3.00;;;1.43;;
4452;SDS011;2239;48.152;11.584;2023-03-24T09:07:45;2.30;;;1.20;;
4452;SDS011;2239;48.152;11.584;2023-03-24T09:10:11;3.17;;;1.17;;
4452;SDS011;2239;48.152;11.584;2023-03-24T09:12:40;2.83;;;1.23;;
4452;SDS011;2239;48.152;11.584;2023-03-24T09:15:08;2.20;;;1.60;;
4452;SDS011;2239;48.152;11.584;2023-03-24T09:17:36;2.50;;;1.60;;
4452;SDS011;2239;48.152;11.584;2023-03-24T09:20:03;5.57;;;1.80;;
4452;SDS011;2239;48.152;11.584;2023-03-24T09:22:32;2.67;;;1.33;;
4452;SDS011;2239;48.152;11.584;2023-03-24T09:25:00;1.60;;;1.10;;
4452;SDS011;2239;48.152;11.584;2023-03-24T09:27:25;6.00;;;2.03;;
4452;SDS011;2239;48.152;11.584;2023-03-24T09:29:51;1.67;;;1.40;;
4452;SDS011;2239;48.152;11.584;2023-03-24T09:32:17;4.47;;;1.60;;
4452;SDS011;2239;48.152;11.584;2023-03-24T09:34:43;1.70;;;1.37;;
4452;SDS011;2239;48.152;11.584;2023-03-24T09:37:09;1.70;;;1.33;;
4452;SDS011;2239;48.152;11.584;2023-03-24T09:39:34;1.17;;;0.73;;
4452;SDS011;2239;48.152;11.584;2023-03-24T09:42:02;1.20;;;0.90;;
4452;SDS011;2239;48.152;11.584;2023-03-24T09:44:51;1.50;;;0.90;;
4452;SDS011;2239;48.152;11.584;2023-03-24T09:50:03;1.00;;;0.90;;
4452;SDS011;2239;48.152;11.584;2023-03-24T09:52:41;2.60;;;1.20;;
4452;SDS011;2239;48.152;11.584;2023-03-24T09:55:10;2.07;;;0.93;;
4452;SDS011;2239;48.152;11.584;2023-03-24T09:57:45;1.60;;;1.20;;
4452;SDS011;2239;48.152;11.584;2023-03-24T10:02:45;1.70;;;1.23;;
4452;SDS011;2239;48.152;11.584;2023-03-24T10:05:16;3.27;;;1.20;;
4452;SDS011;2239;48.152;11.584;2023-03-24T10:10:59;2.10;;;1.00;;
4452;SDS011;2239;48.152;11.584;2023-03-24T10:13:31;1.23;;;1.07;;
4452;SDS011;2239;48.152;11.584;2023-03-24T10:16:03;2.27;;;1.00;;
4452;SDS011;2239;48.152;11.584;2023-03-24T10:21:30;2.17;;;1.17;;
4452;SDS011;2239;48.152;11.584;2023-03-24T10:29:53;2.60;;;0.80;;
4452;SDS011;2239;48.152;11.584;2023-03-24T10:32:22;2.27;;;1.03;;
4452;SDS011;2239;48.152;11.584;2023-03-24T10:34:53;1.33;;;1.03;;
4452;SDS011;2239;48.152;11.584;2023-03-24T10:37:22;1.27;;;0.80;;
4452;SDS011;2239;48.152;11.584;2023-03-24T10:39:48;2.30;;;1.30;;
4452;SDS011;2239;48.152;11.584;2023-03-24T10:42:16;2.13;;;1.33;;
4452;SDS011;2239;48.152;11.584;2023-03-24T10:44:48;2.03;;;1.20;;
4452;SDS011;2239;48.152;11.584;2023-03-24T10:47:16;3.93;;;1.27;;
4452;SDS011;2239;48.152;11.584;2023-03-24T10:49:56;1.87;;;0.90;;
4452;SDS011;2239;48.152;11.584;2023-03-24T10:52:24;3.87;;;1.10;;
4452;SDS011;2239;48.152;11.584;2023-03-24T10:54:58;2.47;;;0.90;;
4452;SDS011;2239;48.152;11.584;2023-03-24T10:57:27;1.10;;;0.80;;
4452;SDS011;2239;48.152;11.584;2023-03-24T11:02:31;2.30;;;0.90;;
4452;SDS011;2239;48.152;11.584;2023-03-24T11:07:46;1.80;;;0.80;;
4452;SDS011;2239;48.152;11.584;2023-03-24T11:10:32;1.43;;;0.93;;
4452;SDS011;2239;48.152;11.584;2023-03-24T11:12:59;1.60;;;0.70;;
4452;SDS011;2239;48.152;11.584;2023-03-24T11:15:29;1.23;;;1.07;;
4452;SDS011;2239;48.152;11.584;2023-03-24T11:17:58;1.53;;;0.73;;
4452;SDS011;2239;48.152;11.584;2023-03-24T11:20:31;1.83;;;0.80;;
4452;SDS011;2239;48.152;11.584;2023-03-24T11:28:56;1.23;;;0.97;;
4452;SDS011;2239;48.152;11.584;2023-03-24T11:31:25;1.57;;;0.97;;
4452;SDS011;2239;48.152;11.584;2023-03-24T11:49:37;0.63;;;0.63;;
4452;SDS011;2239;48.152;11.584;2023-03-24T11:52:11;1.37;;;0.97;;
4452;SDS011;2239;48.152;11.584;2023-03-24T11:55:02;1.23;;;0.70;;
4452;SDS011;2239;48.152;11.584;2023-03-24T11:57:50;2.90;;;0.87;;
4452;SDS011;2239;48.152;11.584;2023-03-24T12:00:37;1.00;;;0.70;;
4452;SDS011;2239;48.152;11.584;2023-03-24T12:08:58;1.70;;;0.93;;
4452;SDS011;2239;48.152;11.584;2023-03-24T12:11:38;1.17;;;0.80;;
4452;SDS011;2239;48.152;11.584;2023-03-24T12:14:27;2.97;;;1.20;;
4452;SDS011;2239;48.152;11.584;2023-03-24T12:22:25;1.30;;;0.90;;
4452;SDS011;2239;48.152;11.584;2023-03-24T12:25:04;4.60;;;1.30;;
4452;SDS011;2239;48.152;11.584;2023-03-24T12:27:45;1.77;;;1.17;;
4452;SDS011;2239;48.152;11.584;2023-03-24T12:35:29;1.70;;;0.80;;
4452;SDS011;2239;48.152;11.584;2023-03-24T12:38:08;2.70;;;1.20;;
4452;SDS011;2239;48.152;11.584;2023-03-24T12:45:54;1.00;;;0.90;;
4452;SDS011;2239;48.152;11.584;2023-03-24T12:53:52;3.87;;;0.93;;
4452;SDS011;2239;48.152;11.584;2023-03-24T12:56:34;1.10;;;0.77;;
4452;SDS011;2239;48.152;11.584;2023-03-24T12:59:07;4.80;;;0.93;;
4452;SDS011;2239;48.152;11.584;2023-03-24T13:01:58;1.30;;;0.70;;
4452;SDS011;2239;48.152;11.584;2023-03-24T13:04:34;1.30;;;0.90;;
4452;SDS011;2239;48.152;11.584;2023-03-24T13:07:07;0.90;;;0.73;;
4452;SDS011;2239;48.152;11.584;2023-03-24T13:09:42;1.00;;;0.90;;
4452;SDS011;2239;48.152;11.584;2023-03-24T13:12:26;0.97;;;0.70;;
4452;SDS011;2239;48.152;11.584;2023-03-24T13:20:23;1.33;;;0.87;;
4452;SDS011;2239;48.152;11.584;2023-03-24T13:22:49;0.97;;;0.87;;
4452;SDS011;2239;48.152;11.584;2023-03-24T13:25:22;1.90;;;1.00;;
4452;SDS011;2239;48.152;11.584;2023-03-24T13:28:09;1.13;;;0.60;;
4452;SDS011;2239;48.152;11.584;2023-03-24T13:30:37;1.30;;;0.83;;
4452;SDS011;2239;48.152;11.584;2023-03-24T13:33:07;2.50;;;1.20;;
4452;SDS011;2239;48.152;11.584;2023-03-24T13:35:48;1.63;;;0.80;;
4452;SDS011;2239;48.152;11.584;2023-03-24T13:41:02;0.77;;;0.60;;
4452;SDS011;2239;48.152;11.584;2023-03-24T13:43:29;1.90;;;0.83;;
4452;SDS011;2239;48.152;11.584;2023-03-24T13:46:01;0.70;;;0.60;;
4452;SDS011;2239;48.152;11.584;2023-03-24T13:56:02;1.10;;;0.80;;
4452;SDS011;2239;48.152;11.584;2023-03-24T14:01:29;1.13;;;0.80;;
4452;SDS011;2239;48.152;11.584;2023-03-24T14:09:44;0.60;;;0.57;;
4452;SDS011;2239;48.152;11.584;2023-03-24T14:12:20;0.77;;;0.60;;
4452;SDS011;2239;48.152;11.584;2023-03-24T14:15:02;1.47;;;0.57;;
4452;SDS011;2239;48.152;11.584;2023-03-24T14:17:44;0.70;;;0.50;;
4452;SDS011;2239;48.152;11.584;2023-03-24T14:20:12;1.00;;;0.50;;
4452;SDS011;2239;48.152;11.584;2023-03-24T14:22:49;0.70;;;0.63;;
4452;SDS011;2239;48.152;11.584;2023-03-24T14:25:20;0.97;;;0.60;;
4452;SDS011;2239;48.152;11.584;2023-03-24T14:27:47;0.73;;;0.53;;
4452;SDS011;2239;48.152;11.584;2023-03-24T14:30:24;0.60;;;0.60;;
4452;SDS011;2239;48.152;11.584;2023-03-24T14:32:55;1.10;;;0.60;;
4452;SDS011;2239;48.152;11.584;2023-03-24T14:35:38;0.70;;;0.50;;
4452;SDS011;2239;48.152;11.584;2023-03-24T14:40:39;1.20;;;0.40;;
4452;SDS011;2239;48.152;11.584;2023-03-24T14:44:09;2.50;;;0.60;;
4452;SDS011;2239;48.152;11.584;2023-03-24T14:49:04;1.30;;;0.57;;
4452;SDS011;2239;48.152;11.584;2023-03-24T14:54:43;1.00;;;0.67;;
4452;SDS011;2239;48.152;11.584;2023-03-24T14:57:17;1.73;;;0.50;;
4452;SDS011;2239;48.152;11.584;2023-03-24T15:07:43;0.70;;;0.60;;
4452;SDS011;2239;48.152;11.584;2023-03-24T15:10:53;0.63;;;0.50;;
4452;SDS011;2239;48.152;11.584;2023-03-24T15:13:04;1.00;;;0.50;;
4452;SDS011;2239;48.152;11.584;2023-03-24T15:15:45;1.47;;;0.80;;
4452;SDS011;2239;48.152;11.584;2023-03-24T15:18:17;0.97;;;0.70;;
4452;SDS011;2239;48.152;11.584;2023-03-24T15:20:46;0.60;;;0.50;;
4452;SDS011;2239;48.152;11.584;2023-03-24T15:23:15;1.30;;;0.70;;
4452;SDS011;2239;48.152;11.584;2023-03-24T15:25:44;0.73;;;0.57;;
4452;SDS011;2239;48.152;11.584;2023-03-24T15:28:18;0.80;;;0.70;;
4452;SDS011;2239;48.152;11.584;2023-03-24T15:30:46;0.90;;;0.60;;
4452;SDS011;2239;48.152;11.584;2023-03-24T15:33:12;2.97;;;0.50;;
4452;SDS011;2239;48.152;11.584;2023-03-24T15:35:38;0.70;;;0.50;;
4452;SDS011;2239;48.152;11.584;2023-03-24T15:38:04;0.73;;;0.60;;
4452;SDS011;2239;48.152;11.584;2023-03-24T15:40:31;0.70;;;0.40;;
4452;SDS011;2239;48.152;11.584;2023-03-24T15:43:05;0.90;;;0.57;;
4452;SDS011;2239;48.152;11.584;2023-03-24T15:45:54;1.63;;;0.50;;
4452;SDS011;2239;48.152;11.584;2023-03-24T15:48:20;0.63;;;0.57;;
4452;SDS011;2239;48.152;11.584;2023-03-24T15:50:56;0.60;;;0.50;;
4452;SDS011;2239;48.152;11.584;2023-03-24T15:58:45;0.73;;;0.73;;
4452;SDS011;2239;48.152;11.584;2023-03-24T16:01:17;2.70;;;0.70;;
4452;SDS011;2239;48.152;11.584;2023-03-24T16:03:51;0.60;;;0.40;;
4452;SDS011;2239;48.152;11.584;2023-03-24T16:06:24;0.60;;;0.40;;
4452;SDS011;2239;48.152;11.584;2023-03-24T16:08:56;1.27;;;0.73;;
4452;SDS011;2239;48.152;11.584;2023-03-24T16:11:24;0.80;;;0.63;;
4452;SDS011;2239;48.152;11.584;2023-03-24T16:13:50;0.60;;;0.40;;
4452;SDS011;2239;48.152;11.584;2023-03-24T16:16:23;0.60;;;0.40;;
4452;SDS011;2239;48.152;11.584;2023-03-24T16:18:54;1.27;;;0.70;;
4452;SDS011;2239;48.152;11.584;2023-03-24T16:21:22;1.10;;;0.60;;
4452;SDS011;2239;48.152;11.584;2023-03-24T16:23:49;0.70;;;0.60;;
4452;SDS011;2239;48.152;11.584;2023-03-24T16:26:20;0.80;;;0.60;;
4452;SDS011;2239;48.152;11.584;2023-03-24T16:28:51;0.67;;;0.63;;
4452;SDS011;2239;48.152;11.584;2023-03-24T16:31:25;0.73;;;0.50;;
4452;SDS011;2239;48.152;11.584;2023-03-24T16:33:54;1.60;;;0.60;;
4452;SDS011;2239;48.152;11.584;2023-03-24T16:36:20;1.70;;;0.97;;
4452;SDS011;2239;48.152;11.584;2023-03-24T16:38:46;0.70;;;0.40;;
4452;SDS011;2239;48.152;11.584;2023-03-24T16:41:13;1.43;;;0.67;;
4452;SDS011;2239;48.152;11.584;2023-03-24T16:43:39;1.00;;;0.50;;
4452;SDS011;2239;48.152;11.584;2023-03-24T16:46:10;0.60;;;0.60;;
4452;SDS011;2239;48.152;11.584;2023-03-24T16:48:40;1.07;;;0.67;;
4452;SDS011;2239;48.152;11.584;2023-03-24T16:51:13;1.20;;;0.70;;
4452;SDS011;2239;48.152;11.584;2023-03-24T16:53:40;0.60;;;0.53;;
4452;SDS011;2239;48.152;11.584;2023-03-24T16:56:07;0.70;;;0.40;;
4452;SDS011;2239;48.152;11.584;2023-03-24T16:58:34;1.03;;;0.70;;
4452;SDS011;2239;48.152;11.584;2023-03-24T17:01:00;0.63;;;0.63;;
4452;SDS011;2239;48.152;11.584;2023-03-24T17:03:26;1.43;;;0.50;;
4452;SDS011;2239;48.152;11.584;2023-03-24T17:05:54;1.57;;;0.50;;
4452;SDS011;2239;48.152;11.584;2023-03-24T17:08:21;0.60;;;0.40;;
4452;SDS011;2239;48.152;11.584;2023-03-24T17:10:48;2.00;;;0.60;;
4452;SDS011;2239;48.152;11.584;2023-03-24T17:13:23;0.93;;;0.60;;
4452;SDS011;2239;48.152;11.584;2023-03-24T17:15:50;0.73;;;0.50;;
4452;SDS011;2239;48.152;11.584;2023-03-24T17:18:16;1.30;;;0.70;;
4452;SDS011;2239;48.152;11.584;2023-03-24T17:20:43;0.83;;;0.50;;
4452;SDS011;2239;48.152;11.584;2023-03-24T17:23:09;1.10;;;1.00;;
4452;SDS011;2239;48.152;11.584;2023-03-24T17:25:36;0.70;;;0.43;;
4452;SDS011;2239;48.152;11.584;2023-03-24T17:28:02;0.70;;;0.50;;
4452;SDS011;2239;48.152;11.584;2023-03-24T17:30:30;0.60;;;0.50;;
4452;SDS011;2239;48.152;11.584;2023-03-24T17:32:56;2.20;;;0.50;;
4452;SDS011;2239;48.152;11.584;2023-03-24T17:35:22;0.50;;;0.40;;
4452;SDS011;2239;48.152;11.584;2023-03-24T17:37:49;1.10;;;0.50;;
4452;SDS011;2239;48.152;11.584;2023-03-24T17:40:17;0.83;;;0.73;;
4452;SDS011;2239;48.152;11.584;2023-03-24T17:42:44;1.23;;;0.60;;
4452;SDS011;2239;48.152;11.584;2023-03-24T17:45:12;0.50;;;0.50;;
4452;SDS011;2239;48.152;11.584;2023-03-24T17:47:43;1.00;;;0.67;;
4452;SDS011;2239;48.152;11.584;2023-03-24T17:50:09;0.50;;;0.40;;
4452;SDS011;2239;48.152;11.584;2023-03-24T17:52:35;0.70;;;0.50;;
4452;SDS011;2239;48.152;11.584;2023-03-24T17:55:09;0.70;;;0.50;;
4452;SDS011;2239;48.152;11.584;2023-03-24T17:57:35;1.00;;;0.60;;
4452;SDS011;2239;48.152;11.584;2023-03-24T18:00:01;0.83;;;0.53;;
4452;SDS011;2239;48.152;11.584;2023-03-24T18:02:30;0.60;;;0.40;;
4452;SDS011;2239;48.152;11.584;2023-03-24T18:04:56;0.60;;;0.40;;
4452;SDS011;2239;48.152;11.584;2023-03-24T18:07:22;0.80;;;0.40;;